sensor_id;sensor_type;location;lat;lon;timestamp;temperature;humidity
1546;DHT22;766;51.502;9.752;2022-10-16T00:00:14;14.60;99.90
1546;DHT22;766;51.502;9.752;2022-10-16T00:02:45;14.60;99.90
1546;DHT22;766;51.502;9.752;2022-10-16T00:05:14;14.60;99.90
1546;DHT22;766;51.502;9.752;2022-10-16T00:07:54;14.60;99.90
1546;DHT22;766;51.502;9.752;2022-10-16T00:10:24;14.60;99.90
1546;DHT22;766;51.502;9.752;2022-10-16T00:12:52;14.60;99.90
1546;DHT22;766;51.502;9.752;2022-10-16T00:15:22;14.60;99.90
1546;DHT22;766;51.502;9.752;2022-10-16T00:17:50;14.60;99.90
1546;DHT22;766;51.502;9.752;2022-10-16T00:20:19;14.60;99.90
1546;DHT22;766;51.502;9.752;2022-10-16T00:22:47;14.60;99.90
1546;DHT22;766;51.502;9.752;2022-10-16T00:25:15;14.60;99.90
1546;DHT22;766;51.502;9.752;2022-10-16T00:27:43;14.60;99.90
1546;DHT22;766;51.502;9.752;2022-10-16T00:30:12;14.70;99.90
1546;DHT22;766;51.502;9.752;2022-10-16T00:32:43;14.70;99.90
1546;DHT22;766;51.502;9.752;2022-10-16T00:35:17;14.70;99.90
1546;DHT22;766;51.502;9.752;2022-10-16T00:37:45;14.70;99.90
1546;DHT22;766;51.502;9.752;2022-10-16T00:40:14;14.80;99.90
1546;DHT22;766;51.502;9.752;2022-10-16T00:42:42;14.80;99.90
1546;DHT22;766;51.502;9.752;2022-10-16T00:45:11;14.70;99.90
1546;DHT22;766;51.502;9.752;2022-10-16T00:47:41;14.70;99.90
1546;DHT22;766;51.502;9.752;2022-10-16T00:50:18;14.60;99.90
1546;DHT22;766;51.502;9.752;2022-10-16T00:52:53;14.60;99.90
1546;DHT22;766;51.502;9.752;2022-10-16T00:55:24;14.60;99.90
1546;DHT22;766;51.502;9.752;2022-10-16T00:57:52;14.60;99.90
1546;DHT22;766;51.502;9.752;2022-10-16T01:00:24;14.60;99.90
1546;DHT22;766;51.502;9.752;2022-10-16T01:02:53;14.50;99.90
1546;DHT22;766;51.502;9.752;2022-10-16T01:05:30;14.50;99.90
1546;DHT22;766;51.502;9.752;2022-10-16T01:08:14;14.50;99.90
1546;DHT22;766;51.502;9.752;2022-10-16T01:10:49;14.50;99.90
1546;DHT22;766;51.502;9.752;2022-10-16T01:13:24;14.60;99.90
1546;DHT22;766;51.502;9.752;2022-10-16T01:15:56;14.50;99.90
1546;DHT22;766;51.502;9.752;2022-10-16T01:18:32;14.50;99.90
1546;DHT22;766;51.502;9.752;2022-10-16T01:21:05;14.50;99.90
1546;DHT22;766;51.502;9.752;2022-10-16T01:23:44;14.50;99.90
1546;DHT22;766;51.502;9.752;2022-10-16T01:26:37;14.50;99.90
1546;DHT22;766;51.502;9.752;2022-10-16T01:29:13;14.50;99.90
1546;DHT22;766;51.502;9.752;2022-10-16T01:31:48;14.50;99.90
1546;DHT22;766;51.502;9.752;2022-10-16T01:34:28;14.50;99.90
1546;DHT22;766;51.502;9.752;2022-10-16T01:37:07;14.50;99.90
1546;DHT22;766;51.502;9.752;2022-10-16T01:39:39;14.50;99.90
1546;DHT22;766;51.502;9.752;2022-10-16T01:42:12;14.50;99.90
1546;DHT22;766;51.502;9.752;2022-10-16T01:44:46;14.40;99.90
1546;DHT22;766;51.502;9.752;2022-10-16T01:47:17;14.30;99.90
1546;DHT22;766;51.502;9.752;2022-10-16T01:49:48;14.40;99.90
1546;DHT22;766;51.502;9.752;2022-10-16T01:52:20;14.30;99.90
1546;DHT22;766;51.502;9.752;2022-10-16T01:54:53;14.30;99.90
1546;DHT22;766;51.502;9.752;2022-10-16T01:57:24;14.30;99.90
1546;DHT22;766;51.502;9.752;2022-10-16T01:59:57;14.20;99.90
1546;DHT22;766;51.502;9.752;2022-10-16T02:02:28;14.30;99.90
1546;DHT22;766;51.502;9.752;2022-10-16T02:05:04;14.30;99.90
1546;DHT22;766;51.502;9.752;2022-10-16T02:07:37;14.20;99.90
1546;DHT22;766;51.502;9.752;2022-10-16T02:10:06;14.20;99.90
1546;DHT22;766;51.502;9.752;2022-10-16T02:12:36;14.20;99.90
1546;DHT22;766;51.502;9.752;2022-10-16T02:15:08;14.30;99.90
1546;DHT22;766;51.502;9.752;2022-10-16T02:17:37;14.20;99.90
1546;DHT22;766;51.502;9.752;2022-10-16T02:20:06;14.20;99.90
1546;DHT22;766;51.502;9.752;2022-10-16T02:22:37;14.20;99.90
1546;DHT22;766;51.502;9.752;2022-10-16T02:25:09;14.20;99.90
1546;DHT22;766;51.502;9.752;2022-10-16T02:27:41;14.20;99.90
1546;DHT22;766;51.502;9.752;2022-10-16T02:30:21;14.30;99.90
1546;DHT22;766;51.502;9.752;2022-10-16T02:32:52;14.20;99.90
1546;DHT22;766;51.502;9.752;2022-10-16T02:35:22;14.30;99.90
1546;DHT22;766;51.502;9.752;2022-10-16T02:37:52;14.20;99.90
1546;DHT22;766;51.502;9.752;2022-10-16T02:40:21;14.20;99.90
1546;DHT22;766;51.502;9.752;2022-10-16T02:42:52;14.20;99.90
1546;DHT22;766;51.502;9.752;2022-10-16T02:45:24;14.20;99.90
1546;DHT22;766;51.502;9.752;2022-10-16T02:47:52;14.30;99.90
1546;DHT22;766;51.502;9.752;2022-10-16T02:50:21;14.30;99.90
1546;DHT22;766;51.502;9.752;2022-10-16T02:52:51;14.20;99.90
1546;DHT22;766;51.502;9.752;2022-10-16T02:55:20;14.30;99.90
1546;DHT22;766;51.502;9.752;2022-10-16T02:57:48;14.30;99.90
1546;DHT22;766;51.502;9.752;2022-10-16T03:00:17;14.30;99.90
1546;DHT22;766;51.502;9.752;2022-10-16T03:02:47;14.20;99.90
1546;DHT22;766;51.502;9.752;2022-10-16T03:05:15;14.30;99.90
1546;DHT22;766;51.502;9.752;2022-10-16T03:07:44;14.20;99.90
1546;DHT22;766;51.502;9.752;2022-10-16T03:10:12;14.30;99.90
1546;DHT22;766;51.502;9.752;2022-10-16T03:12:41;14.20;99.90
1546;DHT22;766;51.502;9.752;2022-10-16T03:15:09;14.20;99.90
1546;DHT22;766;51.502;9.752;2022-10-16T03:17:38;14.20;99.90
1546;DHT22;766;51.502;9.752;2022-10-16T03:20:08;14.20;99.90
1546;DHT22;766;51.502;9.752;2022-10-16T03:22:36;14.20;99.90
1546;DHT22;766;51.502;9.752;2022-10-16T03:25:06;14.20;99.90
1546;DHT22;766;51.502;9.752;2022-10-16T03:27:34;14.20;99.90
1546;DHT22;766;51.502;9.752;2022-10-16T03:30:03;14.10;99.90
1546;DHT22;766;51.502;9.752;2022-10-16T03:32:32;14.10;99.90
1546;DHT22;766;51.502;9.752;2022-10-16T03:35:06;14.20;99.90
1546;DHT22;766;51.502;9.752;2022-10-16T03:37:36;14.20;99.90
1546;DHT22;766;51.502;9.752;2022-10-16T03:40:05;14.10;99.90
1546;DHT22;766;51.502;9.752;2022-10-16T03:42:34;14.10;99.90
1546;DHT22;766;51.502;9.752;2022-10-16T03:45:02;14.10;99.90
1546;DHT22;766;51.502;9.752;2022-10-16T03:47:31;14.10;99.90
1546;DHT22;766;51.502;9.752;2022-10-16T03:50:04;14.10;99.90
1546;DHT22;766;51.502;9.752;2022-10-16T03:52:32;14.10;99.90
1546;DHT22;766;51.502;9.752;2022-10-16T03:55:03;14.10;99.90
1546;DHT22;766;51.502;9.752;2022-10-16T03:57:32;14.10;99.90
1546;DHT22;766;51.502;9.752;2022-10-16T04:00:00;14.00;99.90
1546;DHT22;766;51.502;9.752;2022-10-16T04:02:29;14.00;99.90
1546;DHT22;766;51.502;9.752;2022-10-16T04:04:58;14.00;99.90
1546;DHT22;766;51.502;9.752;2022-10-16T04:07:28;13.90;99.90
1546;DHT22;766;51.502;9.752;2022-10-16T04:09:56;13.80;99.90
1546;DHT22;766;51.502;9.752;2022-10-16T04:12:27;13.90;99.90
1546;DHT22;766;51.502;9.752;2022-10-16T04:14:55;13.80;99.90
1546;DHT22;766;51.502;9.752;2022-10-16T04:17:24;13.80;99.90
1546;DHT22;766;51.502;9.752;2022-10-16T04:19:53;13.80;99.90
1546;DHT22;766;51.502;9.752;2022-10-16T04:22:21;13.80;99.90
1546;DHT22;766;51.502;9.752;2022-10-16T04:24:50;13.80;99.90
1546;DHT22;766;51.502;9.752;2022-10-16T04:27:18;13.80;99.90
1546;DHT22;766;51.502;9.752;2022-10-16T04:29:51;13.70;99.90
1546;DHT22;766;51.502;9.752;2022-10-16T04:32:20;13.70;99.90
1546;DHT22;766;51.502;9.752;2022-10-16T04:34:48;13.70;99.90
1546;DHT22;766;51.502;9.752;2022-10-16T04:37:16;13.70;99.90
1546;DHT22;766;51.502;9.752;2022-10-16T04:39:47;13.70;99.90
1546;DHT22;766;51.502;9.752;2022-10-16T04:42:16;13.60;99.90
1546;DHT22;766;51.502;9.752;2022-10-16T04:44:44;13.60;99.90
1546;DHT22;766;51.502;9.752;2022-10-16T04:47:14;13.50;99.90
1546;DHT22;766;51.502;9.752;2022-10-16T04:49:42;13.60;99.90
1546;DHT22;766;51.502;9.752;2022-10-16T04:52:11;13.60;99.90
1546;DHT22;766;51.502;9.752;2022-10-16T04:54:40;13.60;99.90
1546;DHT22;766;51.502;9.752;2022-10-16T04:57:08;13.60;99.90
1546;DHT22;766;51.502;9.752;2022-10-16T04:59:37;13.50;99.90
1546;DHT22;766;51.502;9.752;2022-10-16T05:02:05;13.60;99.90
1546;DHT22;766;51.502;9.752;2022-10-16T05:04:35;13.50;99.90
1546;DHT22;766;51.502;9.752;2022-10-16T05:07:03;13.60;99.90
1546;DHT22;766;51.502;9.752;2022-10-16T05:09:32;13.60;99.90
1546;DHT22;766;51.502;9.752;2022-10-16T05:12:03;13.50;99.90
1546;DHT22;766;51.502;9.752;2022-10-16T05:14:31;13.60;99.90
1546;DHT22;766;51.502;9.752;2022-10-16T05:17:00;13.60;99.90
1546;DHT22;766;51.502;9.752;2022-10-16T05:19:28;13.60;99.90
1546;DHT22;766;51.502;9.752;2022-10-16T05:21:58;13.60;99.90
1546;DHT22;766;51.502;9.752;2022-10-16T05:24:26;13.60;99.90
1546;DHT22;766;51.502;9.752;2022-10-16T05:26:55;13.70;99.90
1546;DHT22;766;51.502;9.752;2022-10-16T05:29:24;13.60;99.90
1546;DHT22;766;51.502;9.752;2022-10-16T05:31:52;13.60;99.90
1546;DHT22;766;51.502;9.752;2022-10-16T05:34:21;13.60;99.90
1546;DHT22;766;51.502;9.752;2022-10-16T05:36:49;13.50;99.90
1546;DHT22;766;51.502;9.752;2022-10-16T05:39:19;13.50;99.90
1546;DHT22;766;51.502;9.752;2022-10-16T05:41:49;13.50;99.90
1546;DHT22;766;51.502;9.752;2022-10-16T05:44:18;13.60;99.90
1546;DHT22;766;51.502;9.752;2022-10-16T05:46:47;13.60;99.90
1546;DHT22;766;51.502;9.752;2022-10-16T05:49:16;13.60;99.90
1546;DHT22;766;51.502;9.752;2022-10-16T05:51:44;13.60;99.90
1546;DHT22;766;51.502;9.752;2022-10-16T05:54:13;13.60;99.90
1546;DHT22;766;51.502;9.752;2022-10-16T05:56:43;13.60;99.90
1546;DHT22;766;51.502;9.752;2022-10-16T05:59:11;13.60;99.90
1546;DHT22;766;51.502;9.752;2022-10-16T06:01:40;13.60;99.90
1546;DHT22;766;51.502;9.752;2022-10-16T06:04:08;13.60;99.90
1546;DHT22;766;51.502;9.752;2022-10-16T06:06:37;13.60;99.90
1546;DHT22;766;51.502;9.752;2022-10-16T06:09:08;13.60;99.90
1546;DHT22;766;51.502;9.752;2022-10-16T06:11:37;13.60;99.90
1546;DHT22;766;51.502;9.752;2022-10-16T06:14:08;13.60;99.90
1546;DHT22;766;51.502;9.752;2022-10-16T06:16:37;13.60;99.90
1546;DHT22;766;51.502;9.752;2022-10-16T06:19:06;13.60;99.90
1546;DHT22;766;51.502;9.752;2022-10-16T06:21:35;13.70;99.90
1546;DHT22;766;51.502;9.752;2022-10-16T06:24:03;13.70;99.90
1546;DHT22;766;51.502;9.752;2022-10-16T06:26:32;13.70;99.90
1546;DHT22;766;51.502;9.752;2022-10-16T06:29:01;13.80;99.90
1546;DHT22;766;51.502;9.752;2022-10-16T06:31:31;13.70;99.90
1546;DHT22;766;51.502;9.752;2022-10-16T06:34:00;13.80;99.90
1546;DHT22;766;51.502;9.752;2022-10-16T06:36:30;13.80;99.90
1546;DHT22;766;51.502;9.752;2022-10-16T06:38:58;13.80;99.90
1546;DHT22;766;51.502;9.752;2022-10-16T06:41:26;13.80;99.90
1546;DHT22;766;51.502;9.752;2022-10-16T06:43:54;13.80;99.90
1546;DHT22;766;51.502;9.752;2022-10-16T06:46:24;13.80;99.90
1546;DHT22;766;51.502;9.752;2022-10-16T06:48:54;13.90;99.90
1546;DHT22;766;51.502;9.752;2022-10-16T06:51:23;13.80;99.90
1546;DHT22;766;51.502;9.752;2022-10-16T06:53:53;13.80;99.90
1546;DHT22;766;51.502;9.752;2022-10-16T06:56:31;13.80;99.90
1546;DHT22;766;51.502;9.752;2022-10-16T06:59:03;13.80;99.90
1546;DHT22;766;51.502;9.752;2022-10-16T07:01:32;13.80;99.90
1546;DHT22;766;51.502;9.752;2022-10-16T07:04:02;13.80;99.90
1546;DHT22;766;51.502;9.752;2022-10-16T07:06:32;13.70;99.90
1546;DHT22;766;51.502;9.752;2022-10-16T07:09:03;13.70;99.90
1546;DHT22;766;51.502;9.752;2022-10-16T07:11:33;13.70;99.90
1546;DHT22;766;51.502;9.752;2022-10-16T07:14:01;13.80;99.90
1546;DHT22;766;51.502;9.752;2022-10-16T07:16:31;13.90;99.90
1546;DHT22;766;51.502;9.752;2022-10-16T07:19:01;13.90;99.90
1546;DHT22;766;51.502;9.752;2022-10-16T07:21:32;14.00;99.90
1546;DHT22;766;51.502;9.752;2022-10-16T07:24:04;14.00;99.90
1546;DHT22;766;51.502;9.752;2022-10-16T07:26:35;14.00;99.90
1546;DHT22;766;51.502;9.752;2022-10-16T07:29:03;14.00;99.90
1546;DHT22;766;51.502;9.752;2022-10-16T07:31:32;14.00;99.90
1546;DHT22;766;51.502;9.752;2022-10-16T07:34:02;14.20;99.90
1546;DHT22;766;51.502;9.752;2022-10-16T07:36:30;14.20;99.90
1546;DHT22;766;51.502;9.752;2022-10-16T07:39:05;14.30;99.90
1546;DHT22;766;51.502;9.752;2022-10-16T07:41:39;14.20;99.90
1546;DHT22;766;51.502;9.752;2022-10-16T07:44:07;14.10;99.90
1546;DHT22;766;51.502;9.752;2022-10-16T07:46:35;14.20;99.90
1546;DHT22;766;51.502;9.752;2022-10-16T07:49:05;14.10;99.90
1546;DHT22;766;51.502;9.752;2022-10-16T07:51:33;14.20;99.90
1546;DHT22;766;51.502;9.752;2022-10-16T07:54:02;14.30;99.90
1546;DHT22;766;51.502;9.752;2022-10-16T07:56:32;14.40;99.90
1546;DHT22;766;51.502;9.752;2022-10-16T07:59:02;14.50;99.90
1546;DHT22;766;51.502;9.752;2022-10-16T08:01:37;14.50;99.90
1546;DHT22;766;51.502;9.752;2022-10-16T08:04:08;14.40;99.90
1546;DHT22;766;51.502;9.752;2022-10-16T08:06:39;14.40;99.90
1546;DHT22;766;51.502;9.752;2022-10-16T08:09:08;14.50;99.90
1546;DHT22;766;51.502;9.752;2022-10-16T08:11:36;14.50;99.90
1546;DHT22;766;51.502;9.752;2022-10-16T08:14:04;14.70;99.90
1546;DHT22;766;51.502;9.752;2022-10-16T08:16:33;14.90;99.90
1546;DHT22;766;51.502;9.752;2022-10-16T08:19:02;15.20;99.90
1546;DHT22;766;51.502;9.752;2022-10-16T08:21:31;15.20;99.90
1546;DHT22;766;51.502;9.752;2022-10-16T08:24:00;15.20;99.90
1546;DHT22;766;51.502;9.752;2022-10-16T08:26:29;15.00;99.90
1546;DHT22;766;51.502;9.752;2022-10-16T08:28:57;14.90;99.90
1546;DHT22;766;51.502;9.752;2022-10-16T08:31:26;14.80;99.90
1546;DHT22;766;51.502;9.752;2022-10-16T08:33:54;14.70;99.90
1546;DHT22;766;51.502;9.752;2022-10-16T08:36:23;14.80;99.90
1546;DHT22;766;51.502;9.752;2022-10-16T08:38:53;14.80;99.90
1546;DHT22;766;51.502;9.752;2022-10-16T08:41:59;14.90;99.90
1546;DHT22;766;51.502;9.752;2022-10-16T08:44:56;14.80;99.90
1546;DHT22;766;51.502;9.752;2022-10-16T08:47:39;14.80;99.90
1546;DHT22;766;51.502;9.752;2022-10-16T08:50:13;14.70;99.90
1546;DHT22;766;51.502;9.752;2022-10-16T08:52:45;14.70;99.90
1546;DHT22;766;51.502;9.752;2022-10-16T08:55:28;14.70;99.90
1546;DHT22;766;51.502;9.752;2022-10-16T08:57:57;14.70;99.90
1546;DHT22;766;51.502;9.752;2022-10-16T09:00:26;14.70;99.90
1546;DHT22;766;51.502;9.752;2022-10-16T09:03:03;14.70;99.90
1546;DHT22;766;51.502;9.752;2022-10-16T09:05:54;14.90;99.90
1546;DHT22;766;51.502;9.752;2022-10-16T09:08:31;15.20;99.90
1546;DHT22;766;51.502;9.752;2022-10-16T09:11:11;15.40;99.90
1546;DHT22;766;51.502;9.752;2022-10-16T09:13:50;15.20;99.90
1546;DHT22;766;51.502;9.752;2022-10-16T09:16:25;15.20;99.90
1546;DHT22;766;51.502;9.752;2022-10-16T09:19:00;15.20;99.90
1546;DHT22;766;51.502;9.752;2022-10-16T09:21:35;15.20;99.90
1546;DHT22;766;51.502;9.752;2022-10-16T09:24:10;15.30;99.90
1546;DHT22;766;51.502;9.752;2022-10-16T09:26:41;15.50;99.90
1546;DHT22;766;51.502;9.752;2022-10-16T09:29:11;15.40;99.90
1546;DHT22;766;51.502;9.752;2022-10-16T09:31:41;15.50;99.90
1546;DHT22;766;51.502;9.752;2022-10-16T09:34:20;15.60;99.90
1546;DHT22;766;51.502;9.752;2022-10-16T09:36:51;15.70;99.90
1546;DHT22;766;51.502;9.752;2022-10-16T09:39:20;15.60;99.90
1546;DHT22;766;51.502;9.752;2022-10-16T09:44:29;15.40;99.90
1546;DHT22;766;51.502;9.752;2022-10-16T09:47:02;15.50;99.90
1546;DHT22;766;51.502;9.752;2022-10-16T09:49:33;15.50;99.90
1546;DHT22;766;51.502;9.752;2022-10-16T09:52:05;15.70;99.90
1546;DHT22;766;51.502;9.752;2022-10-16T09:54:34;15.60;99.90
1546;DHT22;766;51.502;9.752;2022-10-16T09:57:06;15.90;99.90
1546;DHT22;766;51.502;9.752;2022-10-16T09:59:46;16.00;99.90
1546;DHT22;766;51.502;9.752;2022-10-16T10:02:16;16.20;99.90
1546;DHT22;766;51.502;9.752;2022-10-16T10:04:50;16.30;99.90
1546;DHT22;766;51.502;9.752;2022-10-16T10:07:24;16.40;99.90
1546;DHT22;766;51.502;9.752;2022-10-16T10:09:55;16.60;99.90
1546;DHT22;766;51.502;9.752;2022-10-16T10:12:26;16.90;99.90
1546;DHT22;766;51.502;9.752;2022-10-16T10:15:03;16.80;99.90
1546;DHT22;766;51.502;9.752;2022-10-16T10:17:32;16.70;99.90
1546;DHT22;766;51.502;9.752;2022-10-16T10:20:15;16.70;99.90
1546;DHT22;766;51.502;9.752;2022-10-16T10:22:45;16.50;99.90
1546;DHT22;766;51.502;9.752;2022-10-16T10:28:21;16.80;99.90
1546;DHT22;766;51.502;9.752;2022-10-16T10:30:59;17.20;99.90
1546;DHT22;766;51.502;9.752;2022-10-16T10:33:37;17.40;99.90
1546;DHT22;766;51.502;9.752;2022-10-16T10:36:18;17.30;99.90
1546;DHT22;766;51.502;9.752;2022-10-16T10:38:52;17.30;99.90
1546;DHT22;766;51.502;9.752;2022-10-16T10:41:39;17.50;99.90
1546;DHT22;766;51.502;9.752;2022-10-16T10:44:21;17.80;99.90
1546;DHT22;766;51.502;9.752;2022-10-16T10:46:57;17.80;99.90
1546;DHT22;766;51.502;9.752;2022-10-16T10:49:35;17.90;99.90
1546;DHT22;766;51.502;9.752;2022-10-16T10:52:19;17.90;99.90
1546;DHT22;766;51.502;9.752;2022-10-16T10:54:59;17.60;99.90
1546;DHT22;766;51.502;9.752;2022-10-16T10:57:34;17.80;99.90
1546;DHT22;766;51.502;9.752;2022-10-16T11:00:14;18.10;99.90
1546;DHT22;766;51.502;9.752;2022-10-16T11:02:52;18.40;99.90
1546;DHT22;766;51.502;9.752;2022-10-16T11:05:35;18.50;99.90
1546;DHT22;766;51.502;9.752;2022-10-16T11:08:13;18.20;99.90
1546;DHT22;766;51.502;9.752;2022-10-16T11:10:51;18.10;99.90
1546;DHT22;766;51.502;9.752;2022-10-16T11:13:29;17.80;99.90
1546;DHT22;766;51.502;9.752;2022-10-16T11:16:00;18.00;99.90
1546;DHT22;766;51.502;9.752;2022-10-16T11:18:40;18.30;99.90
1546;DHT22;766;51.502;9.752;2022-10-16T11:21:13;18.10;99.90
1546;DHT22;766;51.502;9.752;2022-10-16T11:23:46;18.10;99.90
1546;DHT22;766;51.502;9.752;2022-10-16T11:26:20;17.90;99.90
1546;DHT22;766;51.502;9.752;2022-10-16T11:28:49;17.90;99.90
1546;DHT22;766;51.502;9.752;2022-10-16T11:31:24;17.70;99.90
1546;DHT22;766;51.502;9.752;2022-10-16T11:34:02;18.00;99.90
1546;DHT22;766;51.502;9.752;2022-10-16T11:36:38;18.40;99.90
1546;DHT22;766;51.502;9.752;2022-10-16T11:39:19;18.50;99.90
1546;DHT22;766;51.502;9.752;2022-10-16T11:41:50;18.70;99.90
1546;DHT22;766;51.502;9.752;2022-10-16T11:44:36;18.90;99.90
1546;DHT22;766;51.502;9.752;2022-10-16T11:47:16;19.00;99.90
1546;DHT22;766;51.502;9.752;2022-10-16T11:50:20;19.50;99.90
1546;DHT22;766;51.502;9.752;2022-10-16T11:52:55;20.00;99.90
1546;DHT22;766;51.502;9.752;2022-10-16T11:55:29;20.30;99.90
1546;DHT22;766;51.502;9.752;2022-10-16T11:58:04;20.40;99.90
1546;DHT22;766;51.502;9.752;2022-10-16T12:00:39;20.80;99.90
1546;DHT22;766;51.502;9.752;2022-10-16T12:03:17;20.70;99.90
1546;DHT22;766;51.502;9.752;2022-10-16T12:06:11;20.70;99.90
1546;DHT22;766;51.502;9.752;2022-10-16T12:08:58;20.90;99.90
1546;DHT22;766;51.502;9.752;2022-10-16T12:12:25;21.10;99.90
1546;DHT22;766;51.502;9.752;2022-10-16T12:15:03;21.20;99.90
1546;DHT22;766;51.502;9.752;2022-10-16T12:17:52;21.20;99.90
1546;DHT22;766;51.502;9.752;2022-10-16T12:20:27;21.30;99.90
1546;DHT22;766;51.502;9.752;2022-10-16T12:23:00;21.50;99.90
1546;DHT22;766;51.502;9.752;2022-10-16T12:25:31;21.70;99.90
1546;DHT22;766;51.502;9.752;2022-10-16T12:28:02;21.70;99.90
1546;DHT22;766;51.502;9.752;2022-10-16T12:30:33;21.60;99.90
1546;DHT22;766;51.502;9.752;2022-10-16T12:33:04;21.10;99.90
1546;DHT22;766;51.502;9.752;2022-10-16T12:35:34;20.80;99.90
1546;DHT22;766;51.502;9.752;2022-10-16T12:38:20;20.80;99.90
1546;DHT22;766;51.502;9.752;2022-10-16T12:40:57;21.20;99.90
1546;DHT22;766;51.502;9.752;2022-10-16T12:43:35;21.50;99.90
1546;DHT22;766;51.502;9.752;2022-10-16T12:46:20;21.60;99.90
1546;DHT22;766;51.502;9.752;2022-10-16T12:48:50;21.80;99.90
1546;DHT22;766;51.502;9.752;2022-10-16T12:51:36;21.50;99.90
1546;DHT22;766;51.502;9.752;2022-10-16T12:54:13;21.10;99.90
1546;DHT22;766;51.502;9.752;2022-10-16T12:56:50;21.10;99.90
1546;DHT22;766;51.502;9.752;2022-10-16T12:59:31;21.70;99.90
1546;DHT22;766;51.502;9.752;2022-10-16T13:02:19;22.20;99.90
1546;DHT22;766;51.502;9.752;2022-10-16T13:05:02;22.50;99.90
1546;DHT22;766;51.502;9.752;2022-10-16T13:07:56;22.20;99.90
1546;DHT22;766;51.502;9.752;2022-10-16T13:10:36;21.60;99.90
1546;DHT22;766;51.502;9.752;2022-10-16T13:13:20;20.90;99.90
1546;DHT22;766;51.502;9.752;2022-10-16T13:16:03;20.10;99.90
1546;DHT22;766;51.502;9.752;2022-10-16T13:18:40;20.00;99.90
1546;DHT22;766;51.502;9.752;2022-10-16T13:21:26;19.80;99.90
1546;DHT22;766;51.502;9.752;2022-10-16T13:24:04;19.80;99.90
1546;DHT22;766;51.502;9.752;2022-10-16T13:26:43;19.90;99.90
1546;DHT22;766;51.502;9.752;2022-10-16T13:29:12;20.20;99.90
1546;DHT22;766;51.502;9.752;2022-10-16T13:31:43;20.80;99.90
1546;DHT22;766;51.502;9.752;2022-10-16T13:34:14;21.30;99.90
1546;DHT22;766;51.502;9.752;2022-10-16T13:36:45;21.80;99.90
1546;DHT22;766;51.502;9.752;2022-10-16T13:39:19;22.20;99.90
1546;DHT22;766;51.502;9.752;2022-10-16T13:42:01;22.90;99.90
1546;DHT22;766;51.502;9.752;2022-10-16T13:44:39;23.20;99.90
1546;DHT22;766;51.502;9.752;2022-10-16T13:47:16;23.20;99.90
1546;DHT22;766;51.502;9.752;2022-10-16T13:49:45;22.90;99.90
1546;DHT22;766;51.502;9.752;2022-10-16T13:52:18;22.60;99.90
1546;DHT22;766;51.502;9.752;2022-10-16T13:54:47;22.20;99.90
1546;DHT22;766;51.502;9.752;2022-10-16T13:57:17;21.20;99.90
1546;DHT22;766;51.502;9.752;2022-10-16T13:59:54;21.20;99.90
1546;DHT22;766;51.502;9.752;2022-10-16T14:02:26;20.90;99.90
1546;DHT22;766;51.502;9.752;2022-10-16T14:04:57;20.60;99.90
1546;DHT22;766;51.502;9.752;2022-10-16T14:07:29;19.90;99.90
1546;DHT22;766;51.502;9.752;2022-10-16T14:10:03;19.80;99.90
1546;DHT22;766;51.502;9.752;2022-10-16T14:12:34;19.70;99.90
1546;DHT22;766;51.502;9.752;2022-10-16T14:15:04;19.40;99.90
1546;DHT22;766;51.502;9.752;2022-10-16T14:17:34;19.40;99.90
1546;DHT22;766;51.502;9.752;2022-10-16T14:20:05;19.40;99.90
1546;DHT22;766;51.502;9.752;2022-10-16T14:22:39;19.60;99.90
1546;DHT22;766;51.502;9.752;2022-10-16T14:25:24;19.50;99.90
1546;DHT22;766;51.502;9.752;2022-10-16T14:28:01;19.30;99.90
1546;DHT22;766;51.502;9.752;2022-10-16T14:30:32;19.20;99.90
1546;DHT22;766;51.502;9.752;2022-10-16T14:33:02;19.20;99.90
1546;DHT22;766;51.502;9.752;2022-10-16T14:35:33;19.00;99.90
1546;DHT22;766;51.502;9.752;2022-10-16T14:38:04;19.10;99.90
1546;DHT22;766;51.502;9.752;2022-10-16T14:40:36;18.90;99.90
1546;DHT22;766;51.502;9.752;2022-10-16T14:43:06;18.80;99.90
1546;DHT22;766;51.502;9.752;2022-10-16T14:45:35;18.60;99.90
1546;DHT22;766;51.502;9.752;2022-10-16T14:48:12;18.60;99.90
1546;DHT22;766;51.502;9.752;2022-10-16T14:50:46;18.30;99.90
1546;DHT22;766;51.502;9.752;2022-10-16T14:53:15;18.40;99.90
1546;DHT22;766;51.502;9.752;2022-10-16T14:55:44;18.40;99.90
1546;DHT22;766;51.502;9.752;2022-10-16T14:58:18;18.40;99.90
1546;DHT22;766;51.502;9.752;2022-10-16T15:00:48;18.50;99.90
1546;DHT22;766;51.502;9.752;2022-10-16T15:03:17;18.30;99.90
1546;DHT22;766;51.502;9.752;2022-10-16T15:05:46;18.10;99.90
1546;DHT22;766;51.502;9.752;2022-10-16T15:08:15;18.00;99.90
1546;DHT22;766;51.502;9.752;2022-10-16T15:10:44;17.80;99.90
1546;DHT22;766;51.502;9.752;2022-10-16T15:13:13;17.70;99.90
1546;DHT22;766;51.502;9.752;2022-10-16T15:15:44;17.70;99.90
1546;DHT22;766;51.502;9.752;2022-10-16T15:18:13;17.80;99.90
1546;DHT22;766;51.502;9.752;2022-10-16T15:20:48;17.70;99.90
1546;DHT22;766;51.502;9.752;2022-10-16T15:23:19;17.60;99.90
1546;DHT22;766;51.502;9.752;2022-10-16T15:25:52;17.60;99.90
1546;DHT22;766;51.502;9.752;2022-10-16T15:28:23;17.70;99.90
1546;DHT22;766;51.502;9.752;2022-10-16T15:30:56;17.70;99.90
1546;DHT22;766;51.502;9.752;2022-10-16T15:33:27;17.70;99.90
1546;DHT22;766;51.502;9.752;2022-10-16T15:36:06;17.60;99.90
1546;DHT22;766;51.502;9.752;2022-10-16T15:38:35;17.60;99.90
1546;DHT22;766;51.502;9.752;2022-10-16T15:41:03;17.60;99.90
1546;DHT22;766;51.502;9.752;2022-10-16T15:43:31;17.70;99.90
1546;DHT22;766;51.502;9.752;2022-10-16T15:46:03;17.60;99.90
1546;DHT22;766;51.502;9.752;2022-10-16T15:48:32;17.50;99.90
1546;DHT22;766;51.502;9.752;2022-10-16T15:51:05;17.40;99.90
1546;DHT22;766;51.502;9.752;2022-10-16T15:53:33;17.40;99.90
1546;DHT22;766;51.502;9.752;2022-10-16T15:56:02;17.30;99.90
1546;DHT22;766;51.502;9.752;2022-10-16T15:58:33;17.20;99.90
1546;DHT22;766;51.502;9.752;2022-10-16T16:01:03;17.20;99.90
1546;DHT22;766;51.502;9.752;2022-10-16T16:03:32;17.30;99.90
1546;DHT22;766;51.502;9.752;2022-10-16T16:06:07;17.20;99.90
1546;DHT22;766;51.502;9.752;2022-10-16T16:08:36;17.10;99.90
1546;DHT22;766;51.502;9.752;2022-10-16T16:11:07;17.10;99.90
1546;DHT22;766;51.502;9.752;2022-10-16T16:13:36;17.20;99.90
1546;DHT22;766;51.502;9.752;2022-10-16T16:16:08;17.20;99.90
1546;DHT22;766;51.502;9.752;2022-10-16T16:18:38;17.20;99.90
1546;DHT22;766;51.502;9.752;2022-10-16T16:21:09;17.10;99.90
1546;DHT22;766;51.502;9.752;2022-10-16T16:23:38;17.20;99.90
1546;DHT22;766;51.502;9.752;2022-10-16T16:26:11;17.20;99.90
1546;DHT22;766;51.502;9.752;2022-10-16T16:28:41;17.20;99.90
1546;DHT22;766;51.502;9.752;2022-10-16T16:31:47;17.20;99.90
1546;DHT22;766;51.502;9.752;2022-10-16T16:34:37;17.20;99.90
1546;DHT22;766;51.502;9.752;2022-10-16T16:37:05;17.30;99.90
1546;DHT22;766;51.502;9.752;2022-10-16T16:39:34;17.20;99.90
1546;DHT22;766;51.502;9.752;2022-10-16T16:42:09;17.20;99.90
1546;DHT22;766;51.502;9.752;2022-10-16T16:44:38;17.00;99.90
1546;DHT22;766;51.502;9.752;2022-10-16T16:47:08;16.90;99.90
1546;DHT22;766;51.502;9.752;2022-10-16T16:49:37;16.80;99.90
1546;DHT22;766;51.502;9.752;2022-10-16T16:52:07;16.60;99.90
1546;DHT22;766;51.502;9.752;2022-10-16T16:54:36;16.50;99.90
1546;DHT22;766;51.502;9.752;2022-10-16T16:57:05;16.40;99.90